Terminal Aerodrome Forecast
Issued by NWS

Home | Current Version | Previous Version | Graphics & Text | Print | Product List | Glossary On
Versions: 1 2 3 4 5 6 7 8 9 10 11 12 13 14 15 16 17 18
000
FTUS43 KEAX 030500
TAFSTJ
TAF
KSTJ 030520Z 0306/0406 13003KT P6SM SKC
     FM031000 18003KT 3SM BR SKC
     FM031200 18003KT 3SM BR VCTS BKN050CB
     FM031400 18015G24KT P6SM SCT035 SCT100
     FM040000 18011KT P6SM FEW035 SCT100=

USA.gov is the U.S. government's official web portal to all federal, state and local government web resources and services.